Terminal Aerodrome Forecast
Issued by NWS

Home | Current Version | Previous Version | Graphics & Text | Print | Product List | Glossary On
Versions: 1 2 3 4 5 6 7 8 9 10 11 12 13 14
810
FTUS43 KBIS 211131
TAFMOT
TAF
KMOT 211131Z 2112/2212 36006KT P6SM FEW250
     FM211700 08008KT P6SM SCT120
     FM212000 09009KT P6SM BKN100
     FM220500 12011KT P6SM BKN070
     FM221100 13013G21KT P6SM OVC030=

USA.gov is the U.S. government's official web portal to all federal, state and local government web resources and services.